Time;durP1;ratioP1;P1;durP2;ratioP2;P2;SDS_P1;SDS_P2;PMS_P1;PMS_P2;Temp;Humidity;BMP_temperature;BMP_pressure;BME280_temperature;BME280_humidity;BME280_pressure;Samples;Min_cycle;Max_cycle;Signal;HPM_P1;HPM_P2
2021/01/31 00:01:02;;;;;;;22.87;12.23;;;3.30;99.90;;;;;;4108071;28;20327;-63
2021/01/31 00:03:07;;;;;;;38.43;21.23;;;3.30;99.90;;;;;;4109116;28;20264;-63
2021/01/31 00:05:10;;;;;;;26.27;14.77;;;3.20;99.90;;;;;;4107165;28;20280;-65
2021/01/31 00:07:11;;;;;;;34.30;18.70;;;3.20;99.90;;;;;;4109033;28;20293;-66
2021/01/31 00:09:12;;;;;;;26.47;14.73;;;3.20;99.90;;;;;;4107303;28;20300;-62
2021/01/31 00:11:13;;;;;;;27.50;15.60;;;3.20;99.90;;;;;;4109531;28;20292;-63
2021/01/31 00:13:16;;;;;;;23.17;12.93;;;3.10;99.90;;;;;;4107904;28;20284;-64
2021/01/31 00:15:20;;;;;;;24.33;14.30;;;3.10;99.90;;;;;;4108994;28;20820;-65
2021/01/31 00:17:21;;;;;;;24.43;13.63;;;3.10;99.90;;;;;;4108005;28;21110;-65
2021/01/31 00:19:23;;;;;;;27.70;14.93;;;3.00;99.90;;;;;;4107978;28;21225;-64
2021/01/31 00:21:24;;;;;;;26.63;14.70;;;3.00;99.90;;;;;;4108496;28;20253;-66
2021/01/31 00:23:27;;;;;;;32.10;15.77;;;3.00;99.90;;;;;;4108062;28;20295;-65
2021/01/31 00:25:28;;;;;;;25.63;13.50;;;3.00;99.90;;;;;;4108664;28;20332;-65
2021/01/31 00:27:29;;;;;;;23.77;12.77;;;2.90;99.90;;;;;;4111175;28;20358;-66
2021/01/31 00:29:31;;;;;;;30.13;14.50;;;2.90;99.90;;;;;;4112437;28;20355;-64
2021/01/31 00:31:33;;;;;;;29.77;15.93;;;2.80;99.90;;;;;;4109144;28;21040;-64
2021/01/31 00:33:34;;;;;;;26.47;14.47;;;2.80;99.90;;;;;;4112334;28;20685;-65
2021/01/31 00:35:37;;;;;;;35.37;18.53;;;2.80;99.90;;;;;;4111220;28;20308;-62
2021/01/31 00:37:38;;;;;;;32.23;15.47;;;2.70;99.90;;;;;;4112022;28;20276;-62
2021/01/31 00:39:39;;;;;;;28.70;13.80;;;2.70;99.90;;;;;;4107242;28;20405;-62
2021/01/31 00:41:42;;;;;;;24.30;12.73;;;2.70;99.90;;;;;;4112155;28;20328;-64
2021/01/31 00:43:43;;;;;;;26.33;14.10;;;2.60;99.90;;;;;;4110888;28;20306;-62
2021/01/31 00:45:45;;;;;;;25.90;13.97;;;2.60;99.90;;;;;;4111875;28;20273;-61
2021/01/31 00:47:46;;;;;;;21.70;12.97;;;2.70;99.90;;;;;;4110614;28;20293;-61
2021/01/31 00:49:49;;;;;;;25.83;14.83;;;2.60;99.90;;;;;;4111433;28;20330;-62
2021/01/31 00:51:50;;;;;;;27.00;15.27;;;2.60;99.90;;;;;;4110861;28;20339;-62
2021/01/31 00:53:51;;;;;;;25.83;14.67;;;2.60;99.90;;;;;;4110528;28;20331;-62
2021/01/31 00:55:52;;;;;;;30.63;15.53;;;2.50;99.90;;;;;;4111188;28;20276;-61
2021/01/31 00:57:53;;;;;;;30.97;16.43;;;2.50;99.90;;;;;;4110736;28;21664;-62
2021/01/31 00:59:55;;;;;;;30.50;16.60;;;2.40;99.90;;;;;;4111858;28;20355;-62
2021/01/31 01:01:56;;;;;;;32.97;17.70;;;2.40;99.90;;;;;;4110517;28;20273;-63
2021/01/31 01:03:57;;;;;;;27.03;14.10;;;2.30;99.90;;;;;;4112179;28;20265;-62
2021/01/31 01:05:59;;;;;;;37.57;17.30;;;2.20;99.90;;;;;;4110599;28;20839;-64
2021/01/31 01:08:02;;;;;;;29.77;15.03;;;2.20;99.90;;;;;;4111464;28;20835;-63
2021/01/31 01:10:07;;;;;;;30.93;16.83;;;2.10;99.90;;;;;;4110357;28;20277;-62
2021/01/31 01:12:09;;;;;;;36.47;17.80;;;2.10;99.90;;;;;;4111556;28;20277;-62
2021/01/31 01:14:10;;;;;;;35.87;17.50;;;2.10;99.90;;;;;;4110276;28;20261;-62
2021/01/31 01:16:11;;;;;;;32.50;17.37;;;2.10;99.90;;;;;;4111366;28;20281;-62
2021/01/31 01:18:12;;;;;;;29.73;16.23;;;2.10;99.90;;;;;;4109953;28;21127;-63
2021/01/31 01:20:14;;;;;;;35.40;16.77;;;2.10;99.90;;;;;;4111423;28;20348;-63
2021/01/31 01:22:15;;;;;;;32.10;17.10;;;2.10;99.90;;;;;;4110231;28;20820;-65
2021/01/31 01:24:17;;;;;;;30.67;15.17;;;2.20;99.90;;;;;;4110993;28;20327;-63
2021/01/31 01:26:18;;;;;;;31.20;15.10;;;2.20;99.90;;;;;;4110829;28;20355;-63
2021/01/31 01:28:19;;;;;;;31.83;16.93;;;2.20;99.90;;;;;;4109643;28;21036;-65
2021/01/31 01:30:25;;;;;;;28.27;14.50;;;2.20;99.90;;;;;;4110811;28;20264;-64
2021/01/31 01:32:26;;;;;;;29.67;16.70;;;2.20;99.90;;;;;;4110310;28;20311;-65
2021/01/31 01:34:28;;;;;;;39.67;18.70;;;2.20;99.90;;;;;;4111628;28;20840;-62
2021/01/31 01:36:29;;;;;;;29.63;15.27;;;2.20;99.90;;;;;;4109816;28;20335;-63
2021/01/31 01:38:30;;;;;;;28.90;14.83;;;2.20;99.90;;;;;;4110883;28;20324;-63
2021/01/31 01:40:37;;;;;;;31.90;15.80;;;2.20;99.90;;;;;;4109945;28;20277;-62
2021/01/31 01:42:39;;;;;;;35.77;17.70;;;2.30;99.90;;;;;;4110808;28;20273;-63
2021/01/31 01:44:41;;;;;;;34.73;18.10;;;2.30;99.90;;;;;;4109464;28;20331;-62
2021/01/31 01:46:47;;;;;;;35.50;17.17;;;2.30;99.90;;;;;;4111170;28;20359;-61
2021/01/31 01:49:03;;;;;;;27.97;15.57;;;2.40;99.90;;;;;;4109496;28;20816;-60
2021/01/31 01:51:04;;;;;;;31.07;16.23;;;2.30;99.90;;;;;;4110633;28;21116;-65
2021/01/31 01:53:08;;;;;;;33.67;16.70;;;2.30;99.90;;;;;;4108921;28;20352;-64
2021/01/31 01:55:11;;;;;;;28.57;14.87;;;2.30;99.90;;;;;;4095079;29;20281;-63
2021/01/31 01:57:16;;;;;;;29.50;16.13;;;2.30;99.90;;;;;;4093406;29;20285;-65
2021/01/31 01:59:17;;;;;;;36.17;19.47;;;2.30;99.90;;;;;;4095070;29;20754;-65
2021/01/31 02:01:21;;;;;;;43.83;20.77;;;2.30;99.90;;;;;;4093644;29;20591;-62
2021/01/31 02:03:29;;;;;;;32.70;17.10;;;2.30;99.90;;;;;;4094507;28;20336;-63
2021/01/31 02:05:30;;;;;;;31.80;16.80;;;2.30;99.90;;;;;;4093849;29;20291;-65
2021/01/31 02:07:31;;;;;;;31.33;16.43;;;2.30;99.90;;;;;;4108365;28;20371;-65
2021/01/31 02:09:34;;;;;;;50.17;24.67;;;2.20;99.90;;;;;;4110066;28;20273;-66
2021/01/31 02:11:35;;;;;;;32.47;17.43;;;2.20;99.90;;;;;;4110187;28;20268;-65
2021/01/31 02:13:39;;;;;;;32.23;16.87;;;2.20;99.90;;;;;;4110058;28;20808;-63
2021/01/31 02:15:40;;;;;;;33.97;17.60;;;2.20;99.90;;;;;;4109117;28;20284;-65
2021/01/31 02:18:08;;;;;;;31.27;17.47;;;2.10;99.90;;;;;;4110342;28;21049;-63
2021/01/31 02:20:26;;;;;;;33.03;16.83;;;2.10;99.90;;;;;;4109707;28;20280;-65
2021/01/31 02:23:01;;;;;;;47.23;23.97;;;2.10;99.90;;;;;;4109870;28;20367;-64
2021/01/31 02:25:40;;;;;;;71.70;35.13;;;2.10;99.90;;;;;;4109364;28;20284;-65
2021/01/31 02:28:13;;;;;;;42.70;21.73;;;2.10;99.90;;;;;;4108753;28;20300;-63
2021/01/31 02:30:36;;;;;;;33.93;17.73;;;2.20;99.90;;;;;;4109411;28;20316;-64
2021/01/31 02:33:14;;;;;;;34.87;18.37;;;2.10;99.90;;;;;;4109356;28;20273;-63
2021/01/31 02:35:25;;;;;;;45.83;22.80;;;2.10;99.90;;;;;;4110337;28;20649;-63
2021/01/31 02:38:04;;;;;;;;;;;2.00;99.90;;;;;;4109108;28;20324;-65
2021/01/31 02:40:24;;;;;;;32.33;16.60;;;2.00;99.90;;;;;;4091062;29;20780;-63
2021/01/31 02:42:41;;;;;;;30.80;15.50;;;2.00;99.90;;;;;;4092140;29;20328;-65
2021/01/31 02:44:49;;;;;;;32.77;17.73;;;1.90;99.90;;;;;;4094533;28;20753;-64
2021/01/31 02:46:59;;;;;;;38.30;19.83;;;1.90;99.90;;;;;;4109891;28;20343;-65
2021/01/31 02:49:06;;;;;;;39.67;19.33;;;1.90;99.90;;;;;;4106721;28;20301;-65
2021/01/31 02:51:13;;;;;;;39.90;21.37;;;1.90;99.90;;;;;;4110174;28;20027;-63
2021/01/31 02:53:22;;;;;;;37.80;18.73;;;1.90;99.90;;;;;;4109006;28;20281;-62
2021/01/31 02:55:37;;;;;;;37.03;19.70;;;1.80;99.90;;;;;;4109780;28;20653;-65
2021/01/31 02:58:13;;;;;;;37.70;19.00;;;1.80;99.90;;;;;;4108617;28;20332;-65
2021/01/31 03:00:19;;;;;;;35.30;18.33;;;1.80;99.90;;;;;;4109159;28;20327;-64
2021/01/31 03:02:31;;;;;;;36.53;18.93;;;1.80;99.90;;;;;;4107525;28;20273;-65
2021/01/31 03:05:02;;;;;;;34.83;19.50;;;1.70;99.90;;;;;;4109935;28;20725;-64
2021/01/31 03:07:15;;;;;;;43.90;22.17;;;1.70;99.90;;;;;;4108598;28;20293;-62
2021/01/31 03:09:31;;;;;;;43.47;21.20;;;1.70;99.90;;;;;;4109588;28;20296;-62
2021/01/31 03:11:40;;;;;;;40.80;20.63;;;1.60;99.90;;;;;;4108073;28;20315;-63
2021/01/31 03:13:53;;;;;;;42.13;21.20;;;1.60;99.90;;;;;;4109675;28;20616;-64
2021/01/31 03:16:03;;;;;;;42.73;19.17;;;1.60;99.90;;;;;;4108577;28;20316;-62
2021/01/31 03:18:11;;;;;;;37.05;18.38;;;1.60;99.90;;;;;;4109290;28;20919;-62
2021/01/31 03:20:31;;;;;;;36.77;18.83;;;1.60;99.90;;;;;;4108700;28;20972;-63
2021/01/31 03:22:45;;;;;;;50.50;23.92;;;1.70;99.90;;;;;;4108140;28;20281;-64
2021/01/31 03:24:57;;;;;;;45.37;20.80;;;1.70;99.90;;;;;;4108218;28;20127;-64
2021/01/31 03:27:15;;;;;;;44.53;20.70;;;1.60;99.90;;;;;;4109690;28;20377;-65
2021/01/31 03:29:16;;;;;;;39.00;19.43;;;1.60;99.90;;;;;;4108915;28;20323;-65
2021/01/31 03:31:21;;;;;;;43.80;20.53;;;1.60;99.90;;;;;;4109060;28;21266;-66
2021/01/31 03:33:38;;;;;;;42.47;19.63;;;1.60;99.90;;;;;;4107952;28;20268;-62
2021/01/31 03:35:42;;;;;;;39.27;19.27;;;1.60;99.90;;;;;;4109909;28;20268;-65
2021/01/31 03:37:55;;;;;;;54.13;24.43;;;1.60;99.90;;;;;;4107857;28;20331;-61
2021/01/31 03:39:57;;;;;;;40.80;19.27;;;1.60;99.90;;;;;;4109470;28;20296;-65
2021/01/31 03:42:00;;;;;;;39.70;18.97;;;1.60;99.90;;;;;;4107773;28;20290;-64
2021/01/31 03:44:02;;;;;;;40.87;18.60;;;1.60;99.90;;;;;;4108361;28;20359;-62
2021/01/31 03:46:21;;;;;;;48.43;23.67;;;1.60;99.90;;;;;;4108172;28;20269;-62
2021/01/31 03:48:26;;;;;;;96.07;37.77;;;1.60;99.90;;;;;;4109071;28;20276;-62
2021/01/31 03:50:28;;;;;;;95.20;36.57;;;1.50;99.90;;;;;;4092187;28;20619;-62
2021/01/31 03:52:30;;;;;;;76.70;28.70;;;1.60;99.90;;;;;;4092125;29;20742;-62
2021/01/31 03:54:31;;;;;;;61.63;24.73;;;1.50;99.90;;;;;;4091846;29;20277;-62
2021/01/31 03:56:45;;;;;;;45.03;19.50;;;1.50;99.90;;;;;;4093581;28;20273;-62
2021/01/31 03:58:51;;;;;;;38.63;19.67;;;1.50;99.90;;;;;;4092024;28;20286;-62
2021/01/31 04:00:59;;;;;;;42.87;22.30;;;1.60;99.90;;;;;;4100239;28;20879;-62
2021/01/31 04:03:09;;;;;;;39.20;19.40;;;1.60;99.90;;;;;;4108047;28;20276;-63
2021/01/31 04:05:13;;;;;;;38.43;18.90;;;1.60;99.90;;;;;;4109197;28;20673;-60
2021/01/31 04:07:21;;;;;;;38.90;17.93;;;1.60;99.90;;;;;;4108219;28;20305;-63
2021/01/31 04:09:24;;;;;;;38.73;18.23;;;1.60;99.90;;;;;;4108438;28;20284;-63
2021/01/31 04:11:37;;;;;;;36.60;18.80;;;1.70;99.90;;;;;;4107991;28;20276;-64
2021/01/31 04:13:39;;;;;;;36.57;17.23;;;1.70;99.90;;;;;;4108876;28;20265;-64
2021/01/31 04:15:48;;;;;;;40.03;19.47;;;1.60;99.90;;;;;;4107924;28;20741;-62
2021/01/31 04:17:50;;;;;;;42.03;20.80;;;1.60;99.90;;;;;;4109444;28;20839;-62
2021/01/31 04:19:51;;;;;;;49.30;23.33;;;1.60;99.90;;;;;;4107576;28;20268;-62
2021/01/31 04:21:53;;;;;;;43.20;20.90;;;1.50;99.90;;;;;;4109207;28;20328;-64
2021/01/31 04:23:54;;;;;;;42.97;21.40;;;1.50;99.90;;;;;;4107420;28;20256;-66
2021/01/31 04:25:55;;;;;;;43.80;20.47;;;1.50;99.90;;;;;;4108293;28;20264;-65
2021/01/31 04:27:57;;;;;;;38.03;17.70;;;1.50;99.90;;;;;;4108351;28;20335;-65
2021/01/31 04:29:58;;;;;;;40.87;20.20;;;1.40;99.90;;;;;;4108695;28;20269;-60
2021/01/31 04:31:59;;;;;;;43.03;21.13;;;1.40;99.90;;;;;;4107992;28;20261;-64
2021/01/31 04:34:01;;;;;;;37.60;19.87;;;1.40;99.90;;;;;;4107427;28;20740;-63
2021/01/31 04:36:02;;;;;;;42.53;19.83;;;1.30;99.90;;;;;;4109037;28;20316;-65
2021/01/31 04:38:04;;;;;;;42.77;20.23;;;1.30;99.90;;;;;;4108014;28;21893;-62
2021/01/31 04:40:09;;;;;;;39.50;18.87;;;1.30;99.90;;;;;;4108632;28;20347;-63
2021/01/31 04:42:18;;;;;;;43.20;19.80;;;1.20;99.90;;;;;;4107467;28;20265;-65
2021/01/31 04:44:21;;;;;;;40.13;20.40;;;1.20;99.90;;;;;;4109072;28;20265;-65
2021/01/31 04:46:28;;;;;;;39.60;18.10;;;1.10;99.90;;;;;;4107476;28;20265;-62
2021/01/31 04:48:40;;;;;;;43.77;21.87;;;1.10;99.90;;;;;;4108362;28;20870;-65
2021/01/31 04:50:47;;;;;;;37.03;18.33;;;1.10;99.90;;;;;;4107573;28;20401;-66
2021/01/31 04:53:13;;;;;;;32.40;17.07;;;1.10;99.90;;;;;;4108836;28;20268;-66
2021/01/31 04:55:17;;;;;;;32.30;16.20;;;1.00;99.90;;;;;;4107276;28;20767;-62
2021/01/31 04:57:31;;;;;;;32.47;16.03;;;1.00;99.90;;;;;;4107697;28;20281;-64
2021/01/31 04:59:40;;;;;;;31.63;15.80;;;1.10;99.90;;;;;;4107641;28;20269;-65
2021/01/31 05:01:42;;;;;;;29.00;15.00;;;1.10;99.90;;;;;;4092568;29;20281;-65
2021/01/31 05:03:55;;;;;;;34.40;16.73;;;1.00;99.90;;;;;;4091564;29;20722;-65
2021/01/31 05:05:59;;;;;;;46.57;22.53;;;1.00;99.90;;;;;;4093005;29;20332;-64
2021/01/31 05:08:03;;;;;;;37.43;17.37;;;1.00;99.90;;;;;;4090876;29;20348;-62
2021/01/31 05:10:08;;;;;;;34.93;17.73;;;1.00;99.90;;;;;;4092974;29;20273;-62
2021/01/31 05:12:21;;;;;;;34.13;16.67;;;1.00;99.90;;;;;;4093053;28;20328;-63
2021/01/31 05:14:47;;;;;;;36.20;17.50;;;1.00;99.90;;;;;;4108384;28;20339;-62
2021/01/31 05:16:49;;;;;;;37.10;17.47;;;1.10;99.90;;;;;;4109899;28;20780;-62
2021/01/31 05:18:57;;;;;;;32.97;16.13;;;1.10;99.90;;;;;;4111358;28;20264;-62
2021/01/31 05:21:04;;;;;;;41.20;19.87;;;1.10;99.90;;;;;;4108408;28;20308;-63
2021/01/31 05:23:06;;;;;;;40.50;21.27;;;1.10;99.90;;;;;;4111356;28;20365;-61
2021/01/31 05:25:12;;;;;;;40.03;19.23;;;1.10;99.90;;;;;;4110458;28;20281;-62
2021/01/31 05:27:17;;;;;;;41.13;20.67;;;1.10;99.90;;;;;;4111746;28;20359;-62
2021/01/31 05:29:24;;;;;;;42.13;20.20;;;1.10;99.90;;;;;;4109905;28;20273;-62
2021/01/31 05:31:32;;;;;;;41.90;21.23;;;1.10;99.90;;;;;;4111369;28;20741;-62
2021/01/31 05:33:52;;;;;;;44.70;21.70;;;1.00;99.90;;;;;;4108631;28;20281;-62
2021/01/31 05:36:15;;;;;;;37.63;17.77;;;1.10;99.90;;;;;;4111940;28;20672;-63
2021/01/31 05:38:40;;;;;;;39.93;19.00;;;1.10;99.90;;;;;;4109871;28;20081;-62
2021/01/31 05:40:44;;;;;;;34.10;17.63;;;1.10;99.90;;;;;;4110919;28;20284;-61
2021/01/31 05:42:46;;;;;;;32.20;15.97;;;1.00;99.90;;;;;;4109807;28;20264;-62
2021/01/31 05:45:17;;;;;;;31.53;15.30;;;1.00;99.90;;;;;;4111071;28;20261;-62
2021/01/31 05:47:24;;;;;;;27.43;13.97;;;1.00;99.90;;;;;;4108982;28;20296;-62
2021/01/31 05:49:30;;;;;;;32.97;15.90;;;0.90;99.90;;;;;;4111212;28;20284;-62
2021/01/31 05:51:34;;;;;;;32.67;17.20;;;0.90;99.90;;;;;;4110067;28;20319;-62
2021/01/31 05:53:36;;;;;;;32.30;17.13;;;0.90;99.90;;;;;;4111125;28;20348;-64
2021/01/31 05:55:38;;;;;;;33.83;16.87;;;0.80;99.90;;;;;;4109470;28;20323;-63
2021/01/31 05:57:40;;;;;;;35.97;16.37;;;0.90;99.90;;;;;;4110523;28;20726;-63
2021/01/31 05:59:42;;;;;;;46.10;22.57;;;0.80;99.90;;;;;;4109600;28;20277;-64
2021/01/31 06:02:22;;;;;;;39.70;20.17;;;0.80;99.90;;;;;;4110422;28;20292;-64
2021/01/31 06:04:25;;;;;;;49.47;22.08;;;0.80;99.90;;;;;;4105917;28;20367;-63
2021/01/31 06:06:27;;;;;;;41.70;19.57;;;0.80;99.90;;;;;;4111564;28;20438;-64
2021/01/31 06:08:31;;;;;;;74.47;33.30;;;0.80;99.90;;;;;;4107915;28;20312;-65
2021/01/31 06:10:35;;;;;;;47.27;22.83;;;0.80;99.90;;;;;;4110692;28;20323;-65
2021/01/31 06:12:37;;;;;;;37.53;18.83;;;0.80;99.90;;;;;;4109585;28;20272;-64
2021/01/31 06:14:42;;;;;;;88.93;40.37;;;0.80;99.90;;;;;;4109415;28;20288;-63
2021/01/31 06:16:44;;;;;;;67.20;31.67;;;0.80;99.90;;;;;;4109701;28;20276;-64
2021/01/31 06:19:10;;;;;;;41.47;19.17;;;0.80;99.90;;;;;;4110361;28;20273;-66
2021/01/31 06:21:16;;;;;;;35.43;18.10;;;0.70;99.90;;;;;;4109364;28;20308;-64
2021/01/31 06:23:38;;;;;;;46.53;22.50;;;0.70;99.90;;;;;;4109606;28;20264;-62
2021/01/31 06:25:40;;;;;;;42.47;21.17;;;0.70;99.90;;;;;;4109107;28;20336;-61
2021/01/31 06:27:42;;;;;;;42.67;21.20;;;0.70;99.90;;;;;;4110257;28;20289;-62
2021/01/31 06:30:23;;;;;;;50.67;25.43;;;0.60;99.90;;;;;;4108843;28;20717;-63
2021/01/31 06:32:30;;;;;;;46.67;22.90;;;0.60;99.90;;;;;;4109724;28;20269;-61
2021/01/31 06:34:32;;;;;;;39.37;18.70;;;0.60;99.90;;;;;;4108694;28;21008;-63
2021/01/31 06:37:12;;;;;;;44.73;23.10;;;0.70;99.90;;;;;;4110006;28;20698;-62
2021/01/31 06:39:51;;;;;;;50.40;26.90;;;0.60;99.90;;;;;;4101866;28;20272;-63
2021/01/31 06:42:08;;;;;;;51.17;26.70;;;0.60;99.90;;;;;;4110092;28;20265;-61
2021/01/31 06:44:26;;;;;;;39.27;19.07;;;0.60;99.90;;;;;;4109693;28;20375;-61
2021/01/31 06:46:44;;;;;;;39.67;19.10;;;0.60;99.90;;;;;;4108423;28;20276;-61
2021/01/31 06:49:02;;;;;;;38.73;19.17;;;0.60;99.90;;;;;;4109123;28;20288;-62
2021/01/31 06:51:24;;;;;;;38.23;20.10;;;0.70;99.90;;;;;;4108327;28;20697;-62
2021/01/31 06:53:51;;;;;;;40.80;18.97;;;0.60;99.90;;;;;;4108626;28;20694;-65
2021/01/31 06:55:52;;;;;;;37.20;19.77;;;0.60;99.90;;;;;;4093049;28;20980;-61
2021/01/31 06:58:30;;;;;;;37.97;20.90;;;0.60;99.90;;;;;;4094265;28;20682;-61
2021/01/31 07:01:08;;;;;;;39.30;19.70;;;0.50;99.90;;;;;;4092601;29;20318;-65
2021/01/31 07:03:16;;;;;;;38.30;19.10;;;0.50;99.90;;;;;;4093692;28;20285;-63
2021/01/31 07:05:32;;;;;;;40.23;19.97;;;0.50;99.90;;;;;;4092920;29;20273;-61
2021/01/31 07:08:10;;;;;;;38.20;19.77;;;0.50;99.90;;;;;;4093933;28;21088;-64
2021/01/31 07:10:36;;;;;;;36.97;19.13;;;0.50;99.90;;;;;;4093265;29;20285;-64
2021/01/31 07:13:13;;;;;;;38.43;20.00;;;0.50;99.90;;;;;;4097492;28;20336;-63
2021/01/31 07:15:16;;;;;;;31.67;15.80;;;0.50;99.90;;;;;;4109250;28;20315;-65
2021/01/31 07:17:27;;;;;;;33.27;17.00;;;0.50;99.90;;;;;;4108209;28;20311;-62
2021/01/31 07:19:31;;;;;;;37.40;16.95;;;0.50;99.90;;;;;;4109594;28;20300;-69
2021/01/31 07:21:52;;;;;;;32.30;16.10;;;0.50;99.90;;;;;;4106995;28;20046;-64
2021/01/31 07:23:58;;;;;;;33.83;15.25;;;0.50;99.90;;;;;;4109293;28;20281;-63
2021/01/31 07:26:14;;;;;;;36.17;17.43;;;0.50;99.90;;;;;;4108544;28;20086;-63
2021/01/31 07:28:41;;;;;;;30.87;16.10;;;0.60;99.90;;;;;;4105282;28;20280;-61
2021/01/31 07:31:23;;;;;;;26.97;14.23;;;0.60;99.90;;;;;;4124289;28;20870;-61
2021/01/31 07:33:33;;;;;;;35.93;15.37;;;0.70;99.90;;;;;;4110457;28;20316;-62
2021/01/31 07:35:52;;;;;;;30.52;15.27;;;0.70;99.90;;;;;;4108428;28;20271;-64
2021/01/31 07:38:13;;;;;;;28.67;14.40;;;0.80;99.90;;;;;;4109142;28;20085;-64
2021/01/31 07:40:20;;;;;;;25.08;12.75;;;0.80;99.90;;;;;;4107945;28;20657;-61
2021/01/31 07:42:23;;;;;;;27.10;13.67;;;0.80;99.90;;;;;;4108607;28;20089;-63
2021/01/31 07:44:29;;;;;;;24.73;13.30;;;0.90;99.90;;;;;;4107508;28;20988;-62
2021/01/31 07:46:30;;;;;;;23.20;13.00;;;0.90;99.90;;;;;;4109211;28;20824;-66
2021/01/31 07:48:56;;;;;;;23.43;12.87;;;0.90;99.90;;;;;;4107942;28;20351;-60
2021/01/31 07:50:59;;;;;;;21.40;11.60;;;0.80;99.90;;;;;;4107848;28;20284;-66
2021/01/31 07:53:02;;;;;;;22.83;12.67;;;0.90;99.90;;;;;;4107610;28;20697;-61
2021/01/31 07:55:11;;;;;;;25.10;13.53;;;0.90;99.90;;;;;;4109021;28;20829;-66
2021/01/31 07:57:23;;;;;;;28.53;13.20;;;0.90;99.90;;;;;;4107057;28;20346;-61
2021/01/31 07:59:30;;;;;;;24.37;13.00;;;1.00;99.90;;;;;;4108679;28;20269;-64
2021/01/31 08:01:53;;;;;;;26.63;13.37;;;1.00;99.90;;;;;;4107356;28;20269;-65
2021/01/31 08:04:14;;;;;;;21.63;11.73;;;1.10;99.90;;;;;;4110615;28;20332;-64
2021/01/31 08:06:38;;;;;;;26.87;14.90;;;1.10;99.90;;;;;;4107296;28;20332;-65
2021/01/31 08:08:42;;;;;;;25.67;14.10;;;1.10;99.90;;;;;;4107586;28;20716;-61
2021/01/31 08:10:49;;;;;;;25.67;14.50;;;1.10;99.90;;;;;;4107544;28;20289;-66
2021/01/31 08:12:59;;;;;;;31.07;16.17;;;1.10;99.90;;;;;;4108076;28;20737;-63
2021/01/31 08:15:33;;;;;;;27.88;13.75;;;1.10;99.90;;;;;;4108001;28;20804;-63
2021/01/31 08:17:40;;;;;;;24.40;11.97;;;1.10;99.90;;;;;;4107532;28;20089;-65
2021/01/31 08:19:42;;;;;;;26.97;12.67;;;1.20;99.90;;;;;;4108796;28;20323;-69
2021/01/31 08:22:06;;;;;;;23.37;11.73;;;1.20;99.90;;;;;;4107546;28;20269;-66
2021/01/31 08:24:08;;;;;;;20.90;11.10;;;1.10;99.90;;;;;;4108888;28;20776;-64
2021/01/31 08:26:09;;;;;;;21.77;11.53;;;1.10;99.90;;;;;;4107954;28;20315;-63
2021/01/31 08:28:18;;;;;;;22.77;11.13;;;1.10;99.90;;;;;;4108162;28;20300;-63
2021/01/31 08:30:36;;;;;;;23.87;13.03;;;1.10;99.90;;;;;;4107729;28;20265;-63
2021/01/31 08:33:06;;;;;;;22.10;10.77;;;1.10;99.90;;;;;;4108176;28;20748;-63
2021/01/31 08:35:19;;;;;;;21.65;11.25;;;1.00;99.90;;;;;;4106411;28;20327;-65
2021/01/31 08:37:24;;;;;;;19.83;11.10;;;1.00;99.90;;;;;;4108524;28;20479;-62
2021/01/31 08:39:31;;;;;;;20.40;11.27;;;1.00;99.90;;;;;;4107252;28;20281;-63
2021/01/31 08:41:41;;;;;;;22.23;11.40;;;0.90;99.90;;;;;;4109060;28;20285;-64
2021/01/31 08:43:49;;;;;;;20.85;11.07;;;1.00;99.90;;;;;;4107601;28;20351;-63
2021/01/31 08:45:50;;;;;;;22.57;11.17;;;1.00;99.90;;;;;;4108350;28;20074;-62
2021/01/31 08:47:51;;;;;;;20.77;10.83;;;1.20;99.90;;;;;;4109393;28;20901;-59
2021/01/31 08:49:57;;;;;;;21.83;10.63;;;1.20;99.90;;;;;;4110089;28;20749;-66
2021/01/31 08:52:02;;;;;;;21.03;12.13;;;1.30;99.90;;;;;;4110189;28;20245;-62
2021/01/31 08:54:12;;;;;;;23.20;12.67;;;1.30;99.90;;;;;;4110964;28;20265;-65
2021/01/31 08:56:24;;;;;;;23.50;12.57;;;1.30;99.90;;;;;;4110633;28;21248;-63
2021/01/31 08:58:25;;;;;;;21.73;10.47;;;1.30;99.90;;;;;;4111680;28;20109;-62
2021/01/31 09:00:29;;;;;;;20.67;10.70;;;1.30;99.90;;;;;;4108779;28;20284;-63
2021/01/31 09:02:31;;;;;;;23.60;12.90;;;1.30;99.90;;;;;;4110473;28;20327;-64
2021/01/31 09:04:32;;;;;;;23.33;11.03;;;1.20;99.90;;;;;;4110890;28;20265;-61
2021/01/31 09:06:36;;;;;;;24.07;11.60;;;1.20;99.90;;;;;;4109071;28;20892;-63
2021/01/31 09:08:39;;;;;;;24.30;10.90;;;1.20;99.90;;;;;;4110635;28;20347;-63
2021/01/31 09:10:44;;;;;;;19.10;10.53;;;1.20;99.90;;;;;;4109854;28;20285;-60
2021/01/31 09:12:45;;;;;;;22.03;11.97;;;1.20;99.90;;;;;;4111044;28;20296;-61
2021/01/31 09:14:46;;;;;;;21.07;11.77;;;1.20;99.90;;;;;;4109371;28;20339;-61
2021/01/31 09:16:47;;;;;;;22.80;11.63;;;1.20;99.90;;;;;;4118001;28;20276;-63
2021/01/31 09:19:11;;;;;;;27.30;12.60;;;1.20;99.90;;;;;;4125889;28;20276;-59
2021/01/31 09:21:34;;;;;;;24.40;14.03;;;1.20;99.90;;;;;;4114422;28;20277;-61
2021/01/31 09:23:37;;;;;;;22.63;11.23;;;1.20;99.90;;;;;;4107876;28;20304;-61
2021/01/31 09:25:39;;;;;;;23.07;12.20;;;1.20;99.90;;;;;;4110833;28;21051;-64
2021/01/31 09:27:59;;;;;;;22.90;11.30;;;1.10;99.90;;;;;;4109021;28;20281;-65
2021/01/31 09:30:05;;;;;;;21.85;10.88;;;1.10;99.90;;;;;;4111073;28;20315;-63
2021/01/31 09:32:20;;;;;;;22.37;11.53;;;1.10;99.90;;;;;;4108845;28;20491;-63
2021/01/31 09:34:25;;;;;;;21.30;11.27;;;1.10;99.90;;;;;;4110390;28;20265;-63
2021/01/31 09:36:26;;;;;;;23.90;11.23;;;1.10;99.90;;;;;;4101857;28;20945;-63
2021/01/31 09:38:29;;;;;;;25.80;11.87;;;1.10;99.90;;;;;;4094445;28;20277;-59
2021/01/31 09:40:33;;;;;;;25.77;12.60;;;1.20;99.90;;;;;;4102641;28;20280;-60
2021/01/31 09:42:36;;;;;;;20.60;10.90;;;1.20;99.90;;;;;;4117945;28;20772;-59
2021/01/31 09:44:43;;;;;;;23.30;11.47;;;1.20;99.90;;;;;;4109906;28;20265;-62
2021/01/31 09:46:44;;;;;;;25.67;13.67;;;1.20;99.90;;;;;;4109877;28;20261;-62
2021/01/31 09:48:45;;;;;;;22.93;12.60;;;1.10;99.90;;;;;;4109166;28;20308;-61
2021/01/31 09:50:52;;;;;;;26.63;12.90;;;1.20;99.90;;;;;;4110642;28;20273;-62
2021/01/31 09:52:55;;;;;;;27.63;14.23;;;1.20;99.90;;;;;;4109348;28;21080;-62
2021/01/31 09:54:56;;;;;;;25.93;13.37;;;1.30;99.90;;;;;;4110707;28;20343;-69
2021/01/31 09:57:01;;;;;;;28.47;13.50;;;1.30;99.90;;;;;;4109214;28;20304;-61
2021/01/31 09:59:03;;;;;;;24.27;12.53;;;1.40;99.90;;;;;;4108659;28;20598;-61
2021/01/31 10:01:24;;;;;;;27.10;11.37;;;1.40;99.90;;;;;;4108804;28;20273;-64
2021/01/31 10:03:31;;;;;;;24.63;11.27;;;1.40;99.90;;;;;;4094366;29;20375;-64
2021/01/31 10:05:36;;;;;;;22.53;10.87;;;1.40;99.90;;;;;;4093321;29;20285;-64
2021/01/31 10:07:46;;;;;;;20.87;12.23;;;1.40;99.90;;;;;;4093107;28;20343;-65
2021/01/31 10:09:50;;;;;;;28.27;12.67;;;1.50;99.90;;;;;;4105235;28;20300;-60
2021/01/31 10:12:11;;;;;;;24.23;12.33;;;1.50;99.90;;;;;;4109149;28;20656;-63
2021/01/31 10:14:42;;;;;;;22.10;12.13;;;1.50;99.90;;;;;;4108870;28;20272;-65
2021/01/31 10:16:44;;;;;;;;;;;1.50;99.90;;;;;;4110484;28;20973;-62
2021/01/31 10:18:48;;;;;;;25.50;12.37;;;1.50;99.90;;;;;;4108331;28;20649;-61
2021/01/31 10:20:49;;;;;;;25.73;11.43;;;1.60;99.90;;;;;;4109709;28;20749;-62
2021/01/31 10:22:51;;;;;;;22.37;12.07;;;1.50;99.90;;;;;;4108547;28;21222;-63
2021/01/31 10:24:54;;;;;;;24.80;12.53;;;1.50;99.90;;;;;;4108940;28;20325;-65
2021/01/31 10:27:10;;;;;;;27.47;13.93;;;1.50;99.90;;;;;;4108941;28;20269;-63
2021/01/31 10:29:30;;;;;;;24.17;12.03;;;1.50;99.90;;;;;;4109051;28;20630;-64
2021/01/31 10:31:40;;;;;;;21.58;12.05;;;1.60;99.90;;;;;;4106865;28;20779;-63
2021/01/31 10:33:47;;;;;;;25.40;12.07;;;1.60;99.90;;;;;;4109544;28;20046;-63
2021/01/31 10:35:48;;;;;;;24.27;12.73;;;1.60;99.90;;;;;;4109427;28;20264;-63
2021/01/31 10:37:50;;;;;;;24.30;13.10;;;1.60;99.90;;;;;;4109633;28;20327;-64
2021/01/31 10:39:51;;;;;;;29.60;14.13;;;1.60;99.90;;;;;;4109203;28;20653;-63
2021/01/31 10:41:55;;;;;;;25.60;13.33;;;1.70;99.90;;;;;;4109127;28;20323;-66
2021/01/31 10:43:58;;;;;;;27.10;13.33;;;1.80;99.90;;;;;;4106117;28;20317;-65
2021/01/31 10:45:59;;;;;;;38.33;17.97;;;1.70;99.90;;;;;;4107024;28;20331;-61
2021/01/31 10:48:01;;;;;;;28.57;14.67;;;1.70;99.90;;;;;;4108448;28;20352;-63
2021/01/31 10:50:04;;;;;;;25.03;11.80;;;1.70;99.90;;;;;;4108267;28;20316;-64
2021/01/31 10:52:05;;;;;;;23.37;12.37;;;1.70;99.90;;;;;;4109302;28;20323;-60
2021/01/31 10:54:06;;;;;;;28.57;13.90;;;1.70;99.90;;;;;;4107962;28;20320;-63
2021/01/31 10:56:07;;;;;;;25.83;12.60;;;1.80;99.90;;;;;;4109324;28;20780;-62
2021/01/31 10:58:09;;;;;;;22.37;12.17;;;1.80;99.90;;;;;;4108150;28;20320;-61
2021/01/31 11:00:12;;;;;;;23.20;11.30;;;1.80;99.90;;;;;;4109488;28;20366;-60
2021/01/31 11:02:13;;;;;;;23.20;11.47;;;1.80;99.90;;;;;;4109992;28;20272;-64